KDYS/DYS METAR and TAF weather

Enter ICAO airport designator
Station Type Date Time Source
KDYS METAR 2020/01/18 04:26 UTC NOAA

KDYS 180426Z 18014KT 10SM OVC006 12/09 A3003 RMK AO2A SLP166 PNO FZRANO $


Station Type Date Time Source
KDYS Decoded METAR 2020/01/18 04:26 UTC NOAA

Abilene, Dyess Air Force Base, TX, United States (KDYS) 32-25-12N 099-51-25W
Jan 17, 2020 - 11:26 PM EST / 2020.01.18 0426 UTC
Wind: from the S (180 degrees) at 16 MPH (14 KT):0
Visibility: 10 mile(s):0
Sky conditions: overcast
Temperature: 53 F (12 C)
Dew Point: 48 F (9 C)
Relative Humidity: 81%
Pressure (altimeter): 30.03 in. Hg (1016 hPa)
ob: KDYS 180426Z 18014KT 10SM OVC006 12/09 A3003 RMK AO2A SLP166 PNO FZRANO
cycle: 4

Station Type Date Time Source
KDYS TAF 2020/01/18 03:15 UTC NOAA

TAF KDYS 1803/1905 20010G15KT 9999 BKN006 QNH2997INS
TEMPO 1803/1805 BKN008
BECMG 1808/1809 27009KT 9999 SKC QNH3010INS
BECMG 1815/1816 01015G20KT 9999 SKC QNH3014INS
BECMG 1823/1824 04010KT 9999 SKC QNH3020INS TX12/1821Z TN05/1814Z

Example: see airport list